Time;durP1;ratioP1;P1;durP2;ratioP2;P2;SDS_P1;SDS_P2;PMS_P1;PMS_P2;Temp;Humidity;BMP_temperature;BMP_pressure;BME280_temperature;BME280_humidity;BME280_pressure;Samples;Min_cycle;Max_cycle;Signal;HPM_P1;HPM_P2
2022/02/22 00:00:41;;;;;;;;;;;;;;;;;;2091359;28;20023;-55
2022/02/22 00:01:42;;;;;;;;;;;;;;;;;;2097410;28;20300;-55
2022/02/22 00:02:43;;;;;;;;;;;;;;;;;;2097530;28;19971;-56
2022/02/22 00:03:44;;;;;;;;;;;;;;;;;;2094093;28;19971;-56
2022/02/22 00:04:45;;;;;;;;;;;;;;;;;;2097699;28;20097;-55
2022/02/22 00:05:45;;;;;;;;;;;;;;;;;;2096445;28;20015;-55
2022/02/22 00:06:46;;;;;;;;;;;;;;;;;;2095298;28;19978;-55
2022/02/22 00:07:47;;;;;;;;;;;;;;;;;;2097578;28;20401;-56
2022/02/22 00:08:48;;;;;;;;;;;;;;;;;;2096819;28;19925;-55
2022/02/22 00:09:49;;;;;;;;;;;;;;;;;;2095986;28;19936;-53
2022/02/22 00:10:50;;;;;;;;;;;;;;;;;;2097435;28;19951;-55
2022/02/22 00:11:51;;;;;;;;;;;;;;;;;;2095284;28;19932;-57
2022/02/22 00:12:52;;;;;;;;;;;;;;;;;;2089626;28;20019;-55
2022/02/22 00:13:53;;;;;;;;;;;;;;;;;;2089144;28;20408;-55
2022/02/22 00:14:53;;;;;;;;;;;;;;;;;;2093063;28;19925;-52
2022/02/22 00:15:54;;;;;;;;;;;;;;;;;;2097580;28;19935;-55
2022/02/22 00:16:55;;;;;;;;;;;;;;;;;;2097389;28;19931;-55
2022/02/22 00:17:56;;;;;;;;;;;;;;;;;;2095283;28;20333;-54
2022/02/22 00:18:57;;;;;;;;;;;;;;;;;;2097440;28;19925;-56
2022/02/22 00:19:58;;;;;;;;;;;;;;;;;;2097180;28;19925;-47
2022/02/22 00:20:58;;;;;;;;;;;;;;;;;;2095641;28;19924;-46
2022/02/22 00:21:59;;;;;;;;;;;;;;;;;;2097551;28;19971;-48
2022/02/22 00:23:02;;;;;;;;;;;;;;;;;;2096281;28;19924;-46
2022/02/22 00:24:03;;;;;;;;;;;;;;;;;;2096612;28;20023;-48
2022/02/22 00:25:04;;;;;;;;;;;;;;;;;;2097443;28;19932;-47
2022/02/22 00:26:05;;;;;;;;;;;;;;;;;;2096404;28;19931;-48
2022/02/22 00:27:05;;;;;;;;;;;;;;;;;;2091874;28;20334;-55
2022/02/22 00:28:06;;;;;;;;;;;;;;;;;;2090731;28;20328;-47
2022/02/22 00:29:08;;;;;;;;;;;;;;;;;;2094390;28;19939;-47
2022/02/22 00:30:09;;;;;;;;;;;;;;;;;;2098891;28;20015;-47
2022/02/22 00:31:10;;;;;;;;;;;;;;;;;;2098863;28;19970;-45
2022/02/22 00:32:10;;;;;;;;;;;;;;;;;;2095549;28;19936;-47
2022/02/22 00:33:11;;;;;;;;;;;;;;;;;;2098719;28;19924;-47
2022/02/22 00:34:13;;;;;;;;;;;;;;;;;;2098145;28;19925;-47
2022/02/22 00:35:14;;;;;;;;;;;;;;;;;;2097206;28;19931;-48
2022/02/22 00:36:14;;;;;;;;;;;;;;;;;;2098832;28;19924;-48
2022/02/22 00:37:15;;;;;;;;;;;;;;;;;;2095783;28;19931;-47
2022/02/22 00:38:17;;;;;;;;;;;;;;;;;;2097465;28;19973;-47
2022/02/22 00:39:18;;;;;;;;;;;;;;;;;;2099010;28;20392;-55
2022/02/22 00:40:19;;;;;;;;;;;;;;;;;;2094199;28;19933;-55
2022/02/22 00:41:19;;;;;;;;;;;;;;;;;;2098621;28;19935;-56
2022/02/22 00:42:20;;;;;;;;;;;;;;;;;;2099183;28;19928;-55
2022/02/22 00:43:21;;;;;;;;;;;;;;;;;;2094075;28;19953;-46
2022/02/22 00:44:27;;;;;;;;;;;;;;;;;;2098791;28;19955;-46
2022/02/22 00:45:28;;;;;;;;;;;;;;;;;;2098331;28;19924;-47
2022/02/22 00:46:28;;;;;;;;;;;;;;;;;;2097078;28;19924;-47
2022/02/22 00:47:29;;;;;;;;;;;;;;;;;;2098743;28;20351;-47
2022/02/22 00:48:30;;;;;;;;;;;;;;;;;;2097825;28;19928;-55
2022/02/22 00:49:31;;;;;;;;;;;;;;;;;;2096585;28;19955;-56
2022/02/22 00:50:32;;;;;;;;;;;;;;;;;;2098699;28;20293;-56
2022/02/22 00:51:33;;;;;;;;;;;;;;;;;;2097841;28;19976;-56
2022/02/22 00:52:34;;;;;;;;;;;;;;;;;;2090564;28;19925;-54
2022/02/22 00:53:34;;;;;;;;;;;;;;;;;;2090325;28;19928;-56
2022/02/22 00:54:35;;;;;;;;;;;;;;;;;;2094325;28;19979;-55
2022/02/22 00:55:36;;;;;;;;;;;;;;;;;;2098677;28;20019;-55
2022/02/22 00:56:37;;;;;;;;;;;;;;;;;;2098613;28;19929;-55
2022/02/22 00:57:41;;;;;;;;;;;;;;;;;;2094392;28;19925;-55
2022/02/22 00:58:42;;;;;;;;;;;;;;;;;;2090364;28;20042;-56
2022/02/22 00:59:43;;;;;;;;;;;;;;;;;;2094571;28;19924;-45
2022/02/22 01:00:44;;;;;;;;;;;;;;;;;;2097185;28;19986;-47
2022/02/22 01:01:44;;;;;;;;;;;;;;;;;;2098692;28;19990;-50
2022/02/22 01:02:47;;;;;;;;;;;;;;;;;;2096960;28;19934;-50
2022/02/22 01:03:48;;;;;;;;;;;;;;;;;;2097646;28;19925;-56
2022/02/22 01:04:48;;;;;;;;;;;;;;;;;;2098741;28;19925;-56
2022/02/22 01:05:49;;;;;;;;;;;;;;;;;;2096959;28;20102;-54
2022/02/22 01:06:50;;;;;;;;;;;;;;;;;;2090685;28;19932;-54
2022/02/22 01:07:51;;;;;;;;;;;;;;;;;;2090334;28;20305;-54
2022/02/22 01:08:52;;;;;;;;;;;;;;;;;;2093785;28;19974;-54
2022/02/22 01:09:53;;;;;;;;;;;;;;;;;;2098848;28;20393;-54
2022/02/22 01:10:53;;;;;;;;;;;;;;;;;;2097988;28;19924;-54
2022/02/22 01:11:54;;;;;;;;;;;;;;;;;;2096833;28;19929;-54
2022/02/22 01:12:55;;;;;;;;;;;;;;;;;;2098613;28;20385;-55
2022/02/22 01:13:56;;;;;;;;;;;;;;;;;;2098034;28;19924;-54
2022/02/22 01:14:57;;;;;;;;;;;;;;;;;;2092335;28;19932;-54
2022/02/22 01:15:58;;;;;;;;;;;;;;;;;;2090379;28;19925;-54
2022/02/22 01:16:58;;;;;;;;;;;;;;;;;;2093620;28;20301;-48
2022/02/22 01:17:59;;;;;;;;;;;;;;;;;;2098372;28;19928;-49
2022/02/22 01:19:00;;;;;;;;;;;;;;;;;;2098664;28;19935;-46
2022/02/22 01:20:05;;;;;;;;;;;;;;;;;;2096349;28;19925;-46
2022/02/22 01:21:06;;;;;;;;;;;;;;;;;;2098544;28;20015;-46
2022/02/22 01:22:07;;;;;;;;;;;;;;;;;;2098739;28;20029;-54
2022/02/22 01:23:07;;;;;;;;;;;;;;;;;;2096406;28;20011;-55
2022/02/22 01:24:10;;;;;;;;;;;;;;;;;;2098420;28;19924;-53
2022/02/22 01:25:11;;;;;;;;;;;;;;;;;;2097838;28;19975;-54
2022/02/22 01:26:12;;;;;;;;;;;;;;;;;;2096231;28;20347;-55
2022/02/22 01:27:13;;;;;;;;;;;;;;;;;;2098459;28;19974;-54
2022/02/22 01:28:14;;;;;;;;;;;;;;;;;;2096247;28;19979;-53
2022/02/22 01:29:14;;;;;;;;;;;;;;;;;;2091425;28;19932;-54
2022/02/22 01:30:15;;;;;;;;;;;;;;;;;;2098092;28;19983;-53
2022/02/22 01:31:16;;;;;;;;;;;;;;;;;;2097423;28;19924;-54
2022/02/22 01:32:17;;;;;;;;;;;;;;;;;;2090044;28;20405;-53
2022/02/22 01:33:18;;;;;;;;;;;;;;;;;;2090269;28;19925;-46
2022/02/22 01:34:19;;;;;;;;;;;;;;;;;;2094686;28;19935;-47
2022/02/22 01:35:20;;;;;;;;;;;;;;;;;;2098599;28;19924;-47
2022/02/22 01:36:21;;;;;;;;;;;;;;;;;;2098307;28;19924;-46
2022/02/22 01:37:22;;;;;;;;;;;;;;;;;;2095476;28;19925;-45
2022/02/22 01:38:23;;;;;;;;;;;;;;;;;;2098683;28;19924;-46
2022/02/22 01:39:24;;;;;;;;;;;;;;;;;;2097634;28;19931;-46
2022/02/22 01:40:27;;;;;;;;;;;;;;;;;;2096909;28;19979;-47
2022/02/22 01:41:29;;;;;;;;;;;;;;;;;;2098491;28;20452;-54
2022/02/22 01:42:30;;;;;;;;;;;;;;;;;;2097582;28;19932;-55
2022/02/22 01:43:31;;;;;;;;;;;;;;;;;;2097400;28;20011;-46
2022/02/22 01:44:31;;;;;;;;;;;;;;;;;;2098602;28;19970;-46
2022/02/22 01:45:34;;;;;;;;;;;;;;;;;;2096268;28;19932;-47
2022/02/22 01:46:35;;;;;;;;;;;;;;;;;;2089961;28;20023;-48
2022/02/22 01:47:36;;;;;;;;;;;;;;;;;;2090377;28;20289;-56
2022/02/22 01:48:36;;;;;;;;;;;;;;;;;;2095295;28;20015;-52
2022/02/22 01:49:38;;;;;;;;;;;;;;;;;;2098294;28;20054;-46
2022/02/22 01:50:39;;;;;;;;;;;;;;;;;;2097443;28;20007;-46
2022/02/22 01:51:40;;;;;;;;;;;;;;;;;;2095323;28;19967;-48
2022/02/22 01:52:43;;;;;;;;;;;;;;;;;;2098426;28;19932;-46
2022/02/22 01:53:44;;;;;;;;;;;;;;;;;;2096780;28;20384;-47
2022/02/22 01:54:45;;;;;;;;;;;;;;;;;;2096426;28;19925;-47
2022/02/22 01:55:45;;;;;;;;;;;;;;;;;;2098293;28;20011;-54
2022/02/22 01:56:46;;;;;;;;;;;;;;;;;;2096251;28;19978;-54
2022/02/22 01:57:47;;;;;;;;;;;;;;;;;;2098112;28;20397;-55
2022/02/22 01:58:48;;;;;;;;;;;;;;;;;;2098376;28;19935;-54
2022/02/22 01:59:49;;;;;;;;;;;;;;;;;;2096072;28;19924;-54
2022/02/22 02:00:50;;;;;;;;;;;;;;;;;;2098226;28;19970;-55
2022/02/22 02:01:50;;;;;;;;;;;;;;;;;;2098393;28;19985;-54
2022/02/22 02:02:52;;;;;;;;;;;;;;;;;;2095057;28;20346;-52
2022/02/22 02:03:54;;;;;;;;;;;;;;;;;;2098342;28;20011;-46
2022/02/22 02:04:55;;;;;;;;;;;;;;;;;;2096990;28;20407;-48
2022/02/22 02:05:56;;;;;;;;;;;;;;;;;;2095775;28;19978;-47
2022/02/22 02:06:56;;;;;;;;;;;;;;;;;;2098004;28;20285;-46
2022/02/22 02:07:57;;;;;;;;;;;;;;;;;;2095074;28;19925;-45
2022/02/22 02:08:58;;;;;;;;;;;;;;;;;;2096893;28;20015;-45
2022/02/22 02:09:59;;;;;;;;;;;;;;;;;;2098164;28;19924;-46
2022/02/22 02:11:00;;;;;;;;;;;;;;;;;;2096644;28;19933;-45
2022/02/22 02:12:01;;;;;;;;;;;;;;;;;;2089878;28;20038;-45
2022/02/22 02:13:02;;;;;;;;;;;;;;;;;;2090085;28;19948;-45
2022/02/22 02:14:03;;;;;;;;;;;;;;;;;;2094725;28;20289;-49
2022/02/22 02:15:04;;;;;;;;;;;;;;;;;;2098147;28;19924;-49
2022/02/22 02:16:05;;;;;;;;;;;;;;;;;;2097182;28;19954;-46
2022/02/22 02:17:06;;;;;;;;;;;;;;;;;;2095621;28;20012;-47
2022/02/22 02:18:06;;;;;;;;;;;;;;;;;;2098229;28;19935;-47
2022/02/22 02:19:07;;;;;;;;;;;;;;;;;;2097574;28;19913;-47
2022/02/22 02:20:08;;;;;;;;;;;;;;;;;;2095494;28;19974;-46
2022/02/22 02:21:09;;;;;;;;;;;;;;;;;;2098221;28;19932;-46
2022/02/22 02:22:10;;;;;;;;;;;;;;;;;;2095562;28;20129;-46
2022/02/22 02:23:11;;;;;;;;;;;;;;;;;;2097206;28;19924;-46
2022/02/22 02:24:12;;;;;;;;;;;;;;;;;;2098290;28;19925;-47
2022/02/22 02:25:13;;;;;;;;;;;;;;;;;;2095997;28;19978;-46
2022/02/22 02:26:13;;;;;;;;;;;;;;;;;;2095537;28;20231;-47
2022/02/22 02:27:14;;;;;;;;;;;;;;;;;;2098070;28;19924;-45
2022/02/22 02:28:15;;;;;;;;;;;;;;;;;;2095758;28;19980;-46
2022/02/22 02:29:16;;;;;;;;;;;;;;;;;;2097975;28;19924;-46
2022/02/22 02:30:17;;;;;;;;;;;;;;;;;;2097683;28;19971;-47
2022/02/22 02:31:18;;;;;;;;;;;;;;;;;;2096084;28;20007;-46
2022/02/22 02:32:22;;;;;;;;;;;;;;;;;;2098088;28;19932;-46
2022/02/22 02:33:22;;;;;;;;;;;;;;;;;;2096819;28;19925;-48
2022/02/22 02:34:23;;;;;;;;;;;;;;;;;;2096071;28;19925;-46
2022/02/22 02:35:24;;;;;;;;;;;;;;;;;;2098187;28;19925;-46
2022/02/22 02:36:25;;;;;;;;;;;;;;;;;;2094672;28;19924;-47
2022/02/22 02:37:26;;;;;;;;;;;;;;;;;;2097149;28;20224;-46
2022/02/22 02:38:27;;;;;;;;;;;;;;;;;;2098143;28;19931;-47
2022/02/22 02:39:28;;;;;;;;;;;;;;;;;;2096035;28;19976;-53
2022/02/22 02:40:28;;;;;;;;;;;;;;;;;;2097931;28;20425;-54
2022/02/22 02:41:29;;;;;;;;;;;;;;;;;;2098059;28;19924;-52
2022/02/22 02:42:30;;;;;;;;;;;;;;;;;;2095962;28;19928;-46
2022/02/22 02:43:31;;;;;;;;;;;;;;;;;;2098154;28;19956;-45
2022/02/22 02:44:32;;;;;;;;;;;;;;;;;;2097216;28;19929;-45
2022/02/22 02:45:33;;;;;;;;;;;;;;;;;;2096012;28;19928;-54
2022/02/22 02:46:33;;;;;;;;;;;;;;;;;;2097863;28;19924;-52
2022/02/22 02:47:34;;;;;;;;;;;;;;;;;;2096484;28;19935;-53
2022/02/22 02:48:35;;;;;;;;;;;;;;;;;;2095660;28;20081;-52
2022/02/22 02:49:36;;;;;;;;;;;;;;;;;;2097780;28;19981;-53
2022/02/22 02:50:37;;;;;;;;;;;;;;;;;;2095934;28;19928;-53
2022/02/22 02:51:38;;;;;;;;;;;;;;;;;;2097726;28;19924;-54
2022/02/22 02:52:39;;;;;;;;;;;;;;;;;;2097857;28;20019;-50
2022/02/22 02:53:39;;;;;;;;;;;;;;;;;;2094426;28;20015;-54
2022/02/22 02:54:40;;;;;;;;;;;;;;;;;;2098086;28;20012;-53
2022/02/22 02:55:41;;;;;;;;;;;;;;;;;;2097911;28;19952;-54
2022/02/22 02:56:42;;;;;;;;;;;;;;;;;;2094821;28;20376;-53
2022/02/22 02:57:43;;;;;;;;;;;;;;;;;;2097918;28;20297;-52
2022/02/22 02:58:44;;;;;;;;;;;;;;;;;;2095780;28;20011;-54
2022/02/22 02:59:46;;;;;;;;;;;;;;;;;;2096577;28;19924;-54
2022/02/22 03:00:47;;;;;;;;;;;;;;;;;;2097846;28;19964;-53
2022/02/22 03:01:48;;;;;;;;;;;;;;;;;;2096991;28;19932;-52
2022/02/22 03:02:49;;;;;;;;;;;;;;;;;;2096413;28;20379;-52
2022/02/22 03:03:50;;;;;;;;;;;;;;;;;;2097864;28;19928;-54
2022/02/22 03:04:51;;;;;;;;;;;;;;;;;;2093369;28;19986;-53
2022/02/22 03:05:52;;;;;;;;;;;;;;;;;;2097654;28;20400;-53
2022/02/22 03:06:52;;;;;;;;;;;;;;;;;;2097997;28;19972;-53
2022/02/22 03:07:58;;;;;;;;;;;;;;;;;;2094271;28;19924;-53
2022/02/22 03:08:59;;;;;;;;;;;;;;;;;;2089973;28;20023;-55
2022/02/22 03:10:01;;;;;;;;;;;;;;;;;;2089163;28;19987;-54
2022/02/22 03:11:04;;;;;;;;;;;;;;;;;;2095549;28;19932;-54
2022/02/22 03:12:05;;;;;;;;;;;;;;;;;;2097876;28;19925;-54
2022/02/22 03:13:05;;;;;;;;;;;;;;;;;;2096743;28;19931;-46
2022/02/22 03:14:06;;;;;;;;;;;;;;;;;;2096347;28;19995;-45
2022/02/22 03:15:07;;;;;;;;;;;;;;;;;;2097839;28;19924;-46
2022/02/22 03:16:08;;;;;;;;;;;;;;;;;;2095853;28;19963;-45
2022/02/22 03:17:09;;;;;;;;;;;;;;;;;;2097717;28;19964;-46
2022/02/22 03:18:10;;;;;;;;;;;;;;;;;;2097896;28;19986;-48
2022/02/22 03:19:11;;;;;;;;;;;;;;;;;;2095615;28;20381;-45
2022/02/22 03:20:12;;;;;;;;;;;;;;;;;;2097997;28;19968;-46
2022/02/22 03:21:13;;;;;;;;;;;;;;;;;;2096999;28;20372;-46
2022/02/22 03:22:14;;;;;;;;;;;;;;;;;;2093725;28;19939;-45
2022/02/22 03:23:16;;;;;;;;;;;;;;;;;;2097705;28;19924;-46
2022/02/22 03:24:17;;;;;;;;;;;;;;;;;;2095943;28;20023;-54
2022/02/22 03:25:18;;;;;;;;;;;;;;;;;;2096832;28;19932;-55
2022/02/22 03:26:19;;;;;;;;;;;;;;;;;;2097956;28;20007;-54
2022/02/22 03:27:20;;;;;;;;;;;;;;;;;;2093297;28;20421;-52
2022/02/22 03:28:20;;;;;;;;;;;;;;;;;;2097805;28;19928;-53
2022/02/22 03:29:21;;;;;;;;;;;;;;;;;;2097585;28;20026;-54
2022/02/22 03:30:22;;;;;;;;;;;;;;;;;;2094483;28;19929;-54
2022/02/22 03:31:23;;;;;;;;;;;;;;;;;;2097666;28;19932;-53
2022/02/22 03:32:24;;;;;;;;;;;;;;;;;;2097558;28;19959;-51
2022/02/22 03:33:25;;;;;;;;;;;;;;;;;;2095509;28;19931;-50
2022/02/22 03:34:26;;;;;;;;;;;;;;;;;;2098017;28;19925;-46
2022/02/22 03:35:26;;;;;;;;;;;;;;;;;;2097298;28;20023;-45
2022/02/22 03:36:27;;;;;;;;;;;;;;;;;;2095946;28;19947;-46
2022/02/22 03:37:28;;;;;;;;;;;;;;;;;;2097703;28;20370;-45
2022/02/22 03:38:29;;;;;;;;;;;;;;;;;;2095630;28;19931;-45
2022/02/22 03:39:30;;;;;;;;;;;;;;;;;;2096285;28;19935;-47
2022/02/22 03:40:31;;;;;;;;;;;;;;;;;;2097664;28;19925;-46
2022/02/22 03:41:32;;;;;;;;;;;;;;;;;;2094258;28;20893;-46
2022/02/22 03:42:32;;;;;;;;;;;;;;;;;;2097563;28;19929;-46
2022/02/22 03:43:33;;;;;;;;;;;;;;;;;;2097689;28;19967;-46
2022/02/22 03:44:34;;;;;;;;;;;;;;;;;;2093010;28;20281;-45
2022/02/22 03:45:35;;;;;;;;;;;;;;;;;;2097704;28;19959;-46
2022/02/22 03:46:36;;;;;;;;;;;;;;;;;;2097524;28;19977;-45
2022/02/22 03:47:37;;;;;;;;;;;;;;;;;;2095421;28;19925;-46
2022/02/22 03:48:38;;;;;;;;;;;;;;;;;;2097778;28;20399;-45
2022/02/22 03:49:39;;;;;;;;;;;;;;;;;;2097161;28;19932;-45
2022/02/22 03:50:39;;;;;;;;;;;;;;;;;;2095818;28;20381;-46
2022/02/22 03:51:41;;;;;;;;;;;;;;;;;;2097516;28;19935;-45
2022/02/22 03:52:42;;;;;;;;;;;;;;;;;;2096824;28;20039;-47
2022/02/22 03:53:43;;;;;;;;;;;;;;;;;;2096174;28;19925;-46
2022/02/22 03:54:43;;;;;;;;;;;;;;;;;;2097602;28;19924;-45
2022/02/22 03:55:44;;;;;;;;;;;;;;;;;;2096659;28;19924;-45
2022/02/22 03:56:45;;;;;;;;;;;;;;;;;;2089183;28;19925;-45
2022/02/22 03:57:46;;;;;;;;;;;;;;;;;;2089249;28;20294;-46
2022/02/22 03:58:47;;;;;;;;;;;;;;;;;;2093441;28;19932;-45
2022/02/22 03:59:48;;;;;;;;;;;;;;;;;;2097757;28;19925;-54
2022/02/22 04:00:48;;;;;;;;;;;;;;;;;;2098384;28;19979;-53
2022/02/22 04:01:53;;;;;;;;;;;;;;;;;;2097015;28;20381;-54
2022/02/22 04:02:54;;;;;;;;;;;;;;;;;;2099010;28;20054;-53
2022/02/22 04:03:55;;;;;;;;;;;;;;;;;;2098184;28;19929;-54
2022/02/22 04:04:56;;;;;;;;;;;;;;;;;;2097341;28;20366;-46
2022/02/22 04:05:57;;;;;;;;;;;;;;;;;;2098867;28;19961;-47
2022/02/22 04:06:57;;;;;;;;;;;;;;;;;;2095862;28;19931;-45
2022/02/22 04:07:58;;;;;;;;;;;;;;;;;;2097902;28;19929;-45
2022/02/22 04:08:59;;;;;;;;;;;;;;;;;;2099001;28;19925;-44
2022/02/22 04:10:00;;;;;;;;;;;;;;;;;;2096959;28;19968;-46
2022/02/22 04:11:01;;;;;;;;;;;;;;;;;;2099023;28;19929;-45
2022/02/22 04:12:02;;;;;;;;;;;;;;;;;;2099023;28;20016;-46
2022/02/22 04:13:02;;;;;;;;;;;;;;;;;;2096787;28;20022;-46
2022/02/22 04:14:03;;;;;;;;;;;;;;;;;;2098987;28;19970;-45
2022/02/22 04:15:04;;;;;;;;;;;;;;;;;;2098339;28;19924;-45
2022/02/22 04:16:05;;;;;;;;;;;;;;;;;;2097249;28;19971;-45
2022/02/22 04:17:06;;;;;;;;;;;;;;;;;;2098999;28;19929;-46
2022/02/22 04:18:07;;;;;;;;;;;;;;;;;;2098159;28;19924;-45
2022/02/22 04:19:07;;;;;;;;;;;;;;;;;;2096343;28;20317;-47
2022/02/22 04:20:09;;;;;;;;;;;;;;;;;;2099051;28;20385;-45
2022/02/22 04:21:10;;;;;;;;;;;;;;;;;;2095512;28;20428;-53
2022/02/22 04:22:10;;;;;;;;;;;;;;;;;;2097853;28;19935;-53
2022/02/22 04:23:11;;;;;;;;;;;;;;;;;;2099036;28;19924;-54
2022/02/22 04:24:12;;;;;;;;;;;;;;;;;;2096813;28;19978;-53
2022/02/22 04:25:14;;;;;;;;;;;;;;;;;;2093163;28;20734;-54
2022/02/22 04:26:15;;;;;;;;;;;;;;;;;;2099046;28;19924;-54
2022/02/22 04:27:15;;;;;;;;;;;;;;;;;;2096739;28;20278;-45
2022/02/22 04:28:17;;;;;;;;;;;;;;;;;;2098915;28;19924;-46
2022/02/22 04:29:18;;;;;;;;;;;;;;;;;;2097522;28;19947;-45
2022/02/22 04:30:22;;;;;;;;;;;;;;;;;;2096816;28;20024;-47
2022/02/22 04:31:25;;;;;;;;;;;;;;;;;;2098856;28;19970;-54
2022/02/22 04:32:25;;;;;;;;;;;;;;;;;;2096101;28;20344;-46
2022/02/22 04:33:26;;;;;;;;;;;;;;;;;;2097435;28;19925;-46
2022/02/22 04:34:27;;;;;;;;;;;;;;;;;;2099661;28;19966;-45
2022/02/22 04:35:28;;;;;;;;;;;;;;;;;;2097476;28;19925;-45
2022/02/22 04:36:29;;;;;;;;;;;;;;;;;;2098019;28;19948;-47
2022/02/22 04:37:30;;;;;;;;;;;;;;;;;;2098718;28;19974;-46
2022/02/22 04:38:31;;;;;;;;;;;;;;;;;;2095251;28;20342;-45
2022/02/22 04:39:32;;;;;;;;;;;;;;;;;;2098748;28;20319;-46
2022/02/22 04:40:33;;;;;;;;;;;;;;;;;;2098277;28;19935;-45
2022/02/22 04:41:33;;;;;;;;;;;;;;;;;;2096909;28;19929;-45
2022/02/22 04:42:34;;;;;;;;;;;;;;;;;;2098659;28;20386;-45
2022/02/22 04:43:35;;;;;;;;;;;;;;;;;;2098207;28;19925;-46
2022/02/22 04:44:36;;;;;;;;;;;;;;;;;;2097592;28;19933;-53
2022/02/22 04:45:37;;;;;;;;;;;;;;;;;;2098734;28;19929;-52
2022/02/22 04:46:38;;;;;;;;;;;;;;;;;;2096639;28;19970;-53
2022/02/22 04:47:39;;;;;;;;;;;;;;;;;;2098753;28;19928;-54
2022/02/22 04:48:40;;;;;;;;;;;;;;;;;;2098934;28;20034;-52
2022/02/22 04:49:41;;;;;;;;;;;;;;;;;;2096983;28;20015;-54
2022/02/22 04:50:42;;;;;;;;;;;;;;;;;;2090648;28;19932;-54
2022/02/22 04:51:42;;;;;;;;;;;;;;;;;;2090566;28;19987;-55
2022/02/22 04:52:43;;;;;;;;;;;;;;;;;;2095348;28;20373;-52
2022/02/22 04:53:44;;;;;;;;;;;;;;;;;;2098982;28;19924;-46
2022/02/22 04:54:45;;;;;;;;;;;;;;;;;;2098188;28;20456;-47
2022/02/22 04:55:46;;;;;;;;;;;;;;;;;;2094988;28;20285;-45
2022/02/22 04:56:47;;;;;;;;;;;;;;;;;;2098702;28;19931;-46
2022/02/22 04:57:48;;;;;;;;;;;;;;;;;;2097413;28;20528;-45
2022/02/22 04:58:49;;;;;;;;;;;;;;;;;;2097495;28;19924;-47
2022/02/22 04:59:50;;;;;;;;;;;;;;;;;;2098714;28;20038;-45
2022/02/22 05:00:51;;;;;;;;;;;;;;;;;;2097541;28;19964;-45
2022/02/22 05:01:52;;;;;;;;;;;;;;;;;;2097536;28;19985;-45
2022/02/22 05:02:53;;;;;;;;;;;;;;;;;;2098497;28;20339;-45
2022/02/22 05:03:53;;;;;;;;;;;;;;;;;;2096811;28;19924;-54
2022/02/22 05:04:55;;;;;;;;;;;;;;;;;;2090354;28;19960;-54
2022/02/22 05:05:55;;;;;;;;;;;;;;;;;;2090442;28;19936;-53
2022/02/22 05:06:56;;;;;;;;;;;;;;;;;;2095555;28;19933;-51
2022/02/22 05:07:57;;;;;;;;;;;;;;;;;;2098630;28;19928;-53
2022/02/22 05:08:58;;;;;;;;;;;;;;;;;;2098122;28;19936;-54
2022/02/22 05:09:59;;;;;;;;;;;;;;;;;;2095745;28;19936;-45
2022/02/22 05:11:00;;;;;;;;;;;;;;;;;;2098282;28;19925;-46
2022/02/22 05:12:01;;;;;;;;;;;;;;;;;;2097798;28;20327;-46
2022/02/22 05:13:01;;;;;;;;;;;;;;;;;;2097266;28;19925;-45
2022/02/22 05:14:03;;;;;;;;;;;;;;;;;;2098701;28;20408;-51
2022/02/22 05:15:04;;;;;;;;;;;;;;;;;;2096368;28;20045;-53
2022/02/22 05:16:05;;;;;;;;;;;;;;;;;;2098349;28;19928;-55
2022/02/22 05:17:06;;;;;;;;;;;;;;;;;;2098567;28;19947;-53
2022/02/22 05:18:07;;;;;;;;;;;;;;;;;;2096376;28;20397;-55
2022/02/22 05:19:08;;;;;;;;;;;;;;;;;;2098700;28;19924;-53
2022/02/22 05:20:09;;;;;;;;;;;;;;;;;;2098672;28;19978;-45
2022/02/22 05:21:10;;;;;;;;;;;;;;;;;;2095193;28;19978;-46
2022/02/22 05:22:11;;;;;;;;;;;;;;;;;;2098712;28;19930;-45
2022/02/22 05:23:12;;;;;;;;;;;;;;;;;;2098008;28;20043;-45
2022/02/22 05:24:14;;;;;;;;;;;;;;;;;;2095023;28;19931;-45
2022/02/22 05:25:14;;;;;;;;;;;;;;;;;;2098565;28;19924;-45
2022/02/22 05:26:15;;;;;;;;;;;;;;;;;;2096568;28;19947;-53
2022/02/22 05:27:16;;;;;;;;;;;;;;;;;;2097293;28;19928;-44
2022/02/22 05:28:17;;;;;;;;;;;;;;;;;;2098551;28;19978;-48
2022/02/22 05:29:18;;;;;;;;;;;;;;;;;;2097197;28;19939;-46
2022/02/22 05:30:19;;;;;;;;;;;;;;;;;;2097706;28;20074;-45
2022/02/22 05:31:20;;;;;;;;;;;;;;;;;;2098654;28;19932;-53
2022/02/22 05:32:21;;;;;;;;;;;;;;;;;;2096209;28;19928;-51
2022/02/22 05:33:22;;;;;;;;;;;;;;;;;;2098450;28;19924;-51
2022/02/22 05:34:23;;;;;;;;;;;;;;;;;;2097847;28;19971;-51
2022/02/22 05:35:23;;;;;;;;;;;;;;;;;;2095754;28;19925;-45
2022/02/22 05:36:24;;;;;;;;;;;;;;;;;;2098558;28;20003;-45
2022/02/22 05:37:25;;;;;;;;;;;;;;;;;;2097759;28;19931;-45
2022/02/22 05:38:29;;;;;;;;;;;;;;;;;;2096460;28;19931;-45
2022/02/22 05:39:30;;;;;;;;;;;;;;;;;;2098755;28;19928;-45
2022/02/22 05:40:31;;;;;;;;;;;;;;;;;;2094526;28;20405;-49
2022/02/22 05:41:32;;;;;;;;;;;;;;;;;;2097604;28;19924;-45
2022/02/22 05:42:33;;;;;;;;;;;;;;;;;;2098511;28;19929;-46
2022/02/22 05:43:34;;;;;;;;;;;;;;;;;;2093754;28;19925;-45
2022/02/22 05:44:35;;;;;;;;;;;;;;;;;;2098517;28;19924;-44
2022/02/22 05:45:36;;;;;;;;;;;;;;;;;;2098572;28;20405;-46
2022/02/22 05:46:37;;;;;;;;;;;;;;;;;;2095870;28;19979;-46
2022/02/22 05:47:38;;;;;;;;;;;;;;;;;;2098349;28;19925;-48
2022/02/22 05:48:40;;;;;;;;;;;;;;;;;;2097336;28;19966;-52
2022/02/22 05:49:41;;;;;;;;;;;;;;;;;;2095141;28;20026;-53
2022/02/22 05:50:41;;;;;;;;;;;;;;;;;;2098426;28;20223;-52
2022/02/22 05:51:42;;;;;;;;;;;;;;;;;;2097469;28;20018;-54
2022/02/22 05:52:43;;;;;;;;;;;;;;;;;;2097519;28;19924;-54
2022/02/22 05:53:44;;;;;;;;;;;;;;;;;;2098551;28;20393;-54
2022/02/22 05:54:47;;;;;;;;;;;;;;;;;;2097596;28;19932;-53
2022/02/22 05:55:48;;;;;;;;;;;;;;;;;;2096758;28;19931;-51
2022/02/22 05:56:49;;;;;;;;;;;;;;;;;;2089985;28;20370;-54
2022/02/22 05:57:50;;;;;;;;;;;;;;;;;;2094533;28;19925;-53
2022/02/22 05:58:51;;;;;;;;;;;;;;;;;;2098233;28;19928;-53
2022/02/22 05:59:52;;;;;;;;;;;;;;;;;;2098501;28;20384;-45
2022/02/22 06:00:53;;;;;;;;;;;;;;;;;;2095171;28;19931;-45
2022/02/22 06:01:54;;;;;;;;;;;;;;;;;;2098594;28;20029;-45
2022/02/22 06:02:54;;;;;;;;;;;;;;;;;;2097513;28;19931;-54
2022/02/22 06:03:55;;;;;;;;;;;;;;;;;;2097154;28;19951;-50
2022/02/22 06:04:56;;;;;;;;;;;;;;;;;;2098231;28;20377;-51
2022/02/22 06:05:57;;;;;;;;;;;;;;;;;;2096434;28;19985;-54
2022/02/22 06:06:59;;;;;;;;;;;;;;;;;;2096688;28;19932;-54
2022/02/22 06:08:00;;;;;;;;;;;;;;;;;;2098120;28;19931;-54
2022/02/22 06:10:21;;;;;;;;;;;;;;;;;;2089776;28;20062;-55
2022/02/22 06:11:21;;;;;;;;;;;;;;;;;;2092846;28;19924;-54
2022/02/22 06:12:24;;;;;;;;;;;;;;;;;;2095922;28;19932;-45
2022/02/22 06:13:24;;;;;;;;;;;;;;;;;;2098131;28;19963;-45
2022/02/22 06:14:25;;;;;;;;;;;;;;;;;;2096811;28;20011;-45
2022/02/22 06:15:26;;;;;;;;;;;;;;;;;;2096529;28;19925;-45
2022/02/22 06:16:28;;;;;;;;;;;;;;;;;;2098358;28;19990;-54
2022/02/22 06:17:28;;;;;;;;;;;;;;;;;;2095158;28;19999;-54
2022/02/22 06:18:29;;;;;;;;;;;;;;;;;;2098297;28;19924;-55
2022/02/22 06:19:30;;;;;;;;;;;;;;;;;;2098269;28;20149;-53
2022/02/22 06:20:32;;;;;;;;;;;;;;;;;;2095110;28;19929;-54
2022/02/22 06:21:33;;;;;;;;;;;;;;;;;;2089853;28;20463;-55
2022/02/22 06:22:34;;;;;;;;;;;;;;;;;;2089615;28;19932;-52
2022/02/22 06:23:35;;;;;;;;;;;;;;;;;;2095531;28;20011;-52
2022/02/22 06:24:36;;;;;;;;;;;;;;;;;;2098449;28;20370;-45
2022/02/22 06:25:37;;;;;;;;;;;;;;;;;;2097392;28;19925;-45
2022/02/22 06:26:37;;;;;;;;;;;;;;;;;;2095763;28;19924;-53
2022/02/22 06:27:38;;;;;;;;;;;;;;;;;;2098087;28;20288;-54
2022/02/22 06:28:39;;;;;;;;;;;;;;;;;;2094983;28;19925;-45
2022/02/22 06:29:40;;;;;;;;;;;;;;;;;;2097689;28;19924;-45
2022/02/22 06:30:41;;;;;;;;;;;;;;;;;;2098387;28;19981;-45
2022/02/22 06:31:42;;;;;;;;;;;;;;;;;;2093527;28;20290;-46
2022/02/22 06:32:43;;;;;;;;;;;;;;;;;;2098148;28;19932;-45
2022/02/22 06:33:44;;;;;;;;;;;;;;;;;;2098058;28;19978;-45
2022/02/22 06:34:44;;;;;;;;;;;;;;;;;;2095766;28;19925;-46
2022/02/22 06:35:45;;;;;;;;;;;;;;;;;;2098039;28;19924;-48
2022/02/22 06:36:46;;;;;;;;;;;;;;;;;;2097492;28;19960;-45
2022/02/22 06:37:47;;;;;;;;;;;;;;;;;;2096307;28;20366;-46
2022/02/22 06:38:48;;;;;;;;;;;;;;;;;;2097920;28;19925;-46
2022/02/22 06:39:49;;;;;;;;;;;;;;;;;;2097400;28;20019;-49
2022/02/22 06:40:50;;;;;;;;;;;;;;;;;;2095397;28;19928;-46
2022/02/22 06:41:50;;;;;;;;;;;;;;;;;;2098161;28;19933;-46
2022/02/22 06:42:51;;;;;;;;;;;;;;;;;;2096242;28;20274;-54
2022/02/22 06:43:52;;;;;;;;;;;;;;;;;;2096908;28;20301;-54
2022/02/22 06:44:53;;;;;;;;;;;;;;;;;;2098081;28;19925;-50
2022/02/22 06:45:54;;;;;;;;;;;;;;;;;;2095758;28;20362;-52
2022/02/22 06:46:55;;;;;;;;;;;;;;;;;;2089999;28;19936;-53
2022/02/22 06:47:56;;;;;;;;;;;;;;;;;;2089607;28;19964;-54
2022/02/22 06:48:57;;;;;;;;;;;;;;;;;;2094900;28;19932;-52
2022/02/22 06:49:58;;;;;;;;;;;;;;;;;;2098154;28;19924;-54
2022/02/22 06:51:03;;;;;;;;;;;;;;;;;;2097519;28;20435;-46
2022/02/22 06:52:04;;;;;;;;;;;;;;;;;;2096604;28;20377;-45
2022/02/22 06:53:05;;;;;;;;;;;;;;;;;;2097889;28;19924;-45
2022/02/22 06:54:06;;;;;;;;;;;;;;;;;;2097383;28;20239;-53
2022/02/22 06:55:06;;;;;;;;;;;;;;;;;;2096481;28;19925;-53
2022/02/22 06:56:07;;;;;;;;;;;;;;;;;;2097949;28;19976;-54
2022/02/22 06:57:13;;;;;;;;;;;;;;;;;;2094309;28;19924;-54
2022/02/22 06:58:14;;;;;;;;;;;;;;;;;;2098072;28;19931;-52